createdAt,value
2023-04-29T00:01:24.190Z,11.20
2023-04-29T00:03:50.937Z,11.10
2023-04-29T00:06:18.709Z,11.10
2023-04-29T00:08:45.617Z,11.10
2023-04-29T00:11:12.894Z,11.10
2023-04-29T00:13:43.722Z,11.00
2023-04-29T00:16:11.201Z,11.00
2023-04-29T00:18:38.033Z,11.00
2023-04-29T00:21:08.175Z,11.00
2023-04-29T00:23:35.212Z,11.00
2023-04-29T00:26:02.697Z,11.00
2023-04-29T00:28:29.484Z,11.00
2023-04-29T00:30:57.350Z,10.90
2023-04-29T00:33:24.109Z,10.90
2023-04-29T00:35:51.466Z,10.90
2023-04-29T00:38:18.120Z,10.90
2023-04-29T00:40:45.200Z,10.90
2023-04-29T00:43:12.491Z,10.90
2023-04-29T00:45:39.406Z,10.80
2023-04-29T00:48:06.736Z,10.70
2023-04-29T00:50:33.616Z,10.80
2023-04-29T00:53:01.591Z,10.80
2023-04-29T00:55:29.699Z,10.70
2023-04-29T00:57:57.730Z,10.70
2023-04-29T01:00:26.124Z,10.70
2023-04-29T01:02:56.615Z,10.60
2023-04-29T01:05:26.328Z,10.60
2023-04-29T01:08:18.581Z,10.60
2023-04-29T01:10:54.385Z,10.60
2023-04-29T01:13:34.410Z,10.60
2023-04-29T01:16:06.407Z,10.60
2023-04-29T01:18:46.147Z,10.50
2023-04-29T01:21:16.581Z,10.50
2023-04-29T01:23:45.381Z,10.40
2023-04-29T01:26:14.521Z,10.40
2023-04-29T01:29:14.434Z,10.40
2023-04-29T01:31:51.633Z,10.30
2023-04-29T01:34:41.342Z,10.30
2023-04-29T01:37:47.391Z,10.30
2023-04-29T01:40:26.456Z,10.20
2023-04-29T01:43:09.786Z,10.20
2023-04-29T01:45:43.876Z,10.20
2023-04-29T01:48:12.845Z,10.20
2023-04-29T01:50:40.312Z,10.10
2023-04-29T01:53:17.308Z,10.00
2023-04-29T01:55:45.387Z,10.00
2023-04-29T01:58:18.819Z,9.90
2023-04-29T02:01:00.973Z,9.90
2023-04-29T02:03:31.157Z,9.90
2023-04-29T02:05:59.904Z,9.90
2023-04-29T02:08:27.207Z,9.80
2023-04-29T02:10:57.242Z,9.90
2023-04-29T02:13:39.065Z,9.80
2023-04-29T02:16:14.398Z,9.80
2023-04-29T02:18:54.393Z,9.80
2023-04-29T02:21:21.608Z,9.80
2023-04-29T02:23:49.106Z,9.70
2023-04-29T02:26:15.820Z,9.70
2023-04-29T02:28:43.207Z,9.70
2023-04-29T02:31:09.837Z,9.70
2023-04-29T02:33:37.306Z,9.70
2023-04-29T02:36:04.319Z,9.70
2023-04-29T02:38:31.604Z,9.70
2023-04-29T02:40:58.604Z,9.60
2023-04-29T02:43:26.674Z,9.70
2023-04-29T02:45:53.458Z,9.60
2023-04-29T02:48:20.845Z,9.60
2023-04-29T02:50:47.884Z,9.60
2023-04-29T02:53:15.239Z,9.50
2023-04-29T02:55:41.894Z,9.50
2023-04-29T02:58:11.169Z,9.50
2023-04-29T03:00:37.782Z,9.50
2023-04-29T03:03:05.592Z,9.50
2023-04-29T03:05:32.853Z,9.50
2023-04-29T03:08:00.119Z,9.50
2023-04-29T03:10:27.894Z,9.40
2023-04-29T03:12:55.284Z,9.40
2023-04-29T03:15:22.087Z,9.40
2023-04-29T03:17:49.791Z,9.40
2023-04-29T03:20:16.508Z,9.40
2023-04-29T03:22:43.790Z,9.40
2023-04-29T03:25:10.786Z,9.40
2023-04-29T03:27:39.701Z,9.40
2023-04-29T03:30:07.741Z,9.40
2023-04-29T03:32:38.734Z,9.40
2023-04-29T03:35:05.935Z,9.40
2023-04-29T03:37:39.729Z,9.40
2023-04-29T03:40:18.709Z,9.40
2023-04-29T03:42:46.050Z,9.30
2023-04-29T03:45:14.177Z,9.30
2023-04-29T03:47:41.906Z,9.30
2023-04-29T03:50:09.041Z,9.30
2023-04-29T03:52:36.870Z,9.30
2023-04-29T03:55:09.367Z,9.30
2023-04-29T03:57:37.277Z,9.30
2023-04-29T04:00:05.795Z,9.20
2023-04-29T04:02:40.617Z,9.20
2023-04-29T04:05:10.697Z,9.30
2023-04-29T04:07:40.882Z,9.20
2023-04-29T04:10:28.118Z,9.20
2023-04-29T04:12:56.723Z,9.20
2023-04-29T04:15:23.664Z,9.20
2023-04-29T04:17:51.280Z,9.30
2023-04-29T04:20:18.269Z,9.20
2023-04-29T04:22:46.304Z,9.20
2023-04-29T04:25:20.776Z,9.20
2023-04-29T04:27:48.391Z,9.20
2023-04-29T04:30:25.674Z,9.20
2023-04-29T04:32:52.891Z,9.20
2023-04-29T04:35:19.649Z,9.20
2023-04-29T04:37:47.000Z,9.20
2023-04-29T04:40:13.872Z,9.20
2023-04-29T04:43:01.135Z,9.10
2023-04-29T04:45:31.223Z,9.10
2023-04-29T04:47:59.016Z,9.10
2023-04-29T04:50:29.452Z,9.20
2023-04-29T04:52:56.628Z,9.20
2023-04-29T04:55:40.272Z,9.20
2023-04-29T04:58:07.335Z,9.20
2023-04-29T05:00:34.976Z,9.20
2023-04-29T05:03:02.105Z,9.20
2023-04-29T05:05:29.629Z,9.20
2023-04-29T05:07:56.294Z,9.20
2023-04-29T05:10:30.565Z,9.20
2023-04-29T05:13:00.284Z,9.20
2023-04-29T05:15:27.633Z,9.20
2023-04-29T05:17:57.263Z,9.20
2023-04-29T05:20:26.273Z,9.30
2023-04-29T05:22:54.350Z,9.30
2023-04-29T05:25:22.688Z,9.30
2023-04-29T05:27:49.460Z,9.30
2023-04-29T05:30:20.013Z,9.40
2023-04-29T05:32:47.130Z,9.40
2023-04-29T05:35:16.596Z,9.50
2023-04-29T05:37:44.160Z,9.40
2023-04-29T05:40:30.025Z,9.40
2023-04-29T05:43:12.801Z,9.40
2023-04-29T05:45:40.068Z,9.40
2023-04-29T05:48:06.731Z,9.30
2023-04-29T05:50:35.553Z,9.40
2023-04-29T05:53:02.267Z,9.40
2023-04-29T05:55:29.308Z,9.40
2023-04-29T05:57:57.179Z,9.40
2023-04-29T06:00:24.037Z,9.40
2023-04-29T06:02:59.069Z,9.40
2023-04-29T06:05:28.027Z,9.40
2023-04-29T06:08:10.955Z,9.40
2023-04-29T06:10:46.105Z,9.50
2023-04-29T06:13:13.395Z,9.50
2023-04-29T06:15:40.299Z,9.50
2023-04-29T06:18:07.574Z,9.50
2023-04-29T06:20:36.824Z,9.50
2023-04-29T06:23:05.666Z,9.50
2023-04-29T06:25:32.281Z,9.50
2023-04-29T06:28:04.556Z,9.50
2023-04-29T06:30:31.583Z,9.50
2023-04-29T06:32:59.147Z,9.50
2023-04-29T06:35:25.909Z,9.50
2023-04-29T06:38:11.921Z,9.50
2023-04-29T06:40:38.858Z,9.50
2023-04-29T06:43:26.619Z,9.50
2023-04-29T06:46:13.328Z,9.50
2023-04-29T06:48:50.796Z,9.60
2023-04-29T06:51:18.264Z,9.50
2023-04-29T06:53:44.909Z,9.60
2023-04-29T06:56:12.742Z,9.60
2023-04-29T06:58:40.332Z,9.60
2023-04-29T07:01:08.896Z,9.60
2023-04-29T07:03:35.638Z,9.70
2023-04-29T07:06:03.034Z,9.70
2023-04-29T07:08:29.953Z,9.80
2023-04-29T07:10:58.091Z,9.80
2023-04-29T07:13:25.325Z,9.90
2023-04-29T07:15:52.593Z,9.90
2023-04-29T07:18:19.364Z,10.00
2023-04-29T07:20:48.187Z,10.10
2023-04-29T07:23:15.053Z,10.10
2023-04-29T07:25:43.284Z,10.20
2023-04-29T07:28:09.932Z,10.10
2023-04-29T07:30:37.768Z,10.20
2023-04-29T07:33:05.039Z,10.20
2023-04-29T07:35:32.528Z,10.30
2023-04-29T07:37:59.342Z,10.30
2023-04-29T07:40:26.220Z,10.40
2023-04-29T07:42:56.512Z,10.50
2023-04-29T07:45:23.734Z,10.60
2023-04-29T07:47:50.477Z,10.70
2023-04-29T07:50:17.573Z,10.80
2023-04-29T07:52:44.198Z,11.00
2023-04-29T07:55:11.713Z,11.20
2023-04-29T07:57:38.652Z,11.40
2023-04-29T08:00:07.836Z,11.50
2023-04-29T08:02:42.454Z,11.60
2023-04-29T08:05:12.628Z,11.70
2023-04-29T08:07:39.374Z,12.00
2023-04-29T08:10:07.195Z,12.30
2023-04-29T08:12:36.873Z,12.40
2023-04-29T08:15:05.006Z,12.50
2023-04-29T08:17:31.868Z,12.60
2023-04-29T08:19:59.151Z,12.70
2023-04-29T08:22:26.387Z,12.60
2023-04-29T08:24:53.238Z,12.50
2023-04-29T08:27:21.720Z,12.30
2023-04-29T08:29:48.648Z,12.10
2023-04-29T08:32:15.262Z,11.90
2023-04-29T08:34:44.364Z,11.90
2023-04-29T08:37:12.072Z,11.70
2023-04-29T08:39:38.869Z,11.50
2023-04-29T08:42:10.613Z,11.20
2023-04-29T08:44:38.092Z,11.10
2023-04-29T08:47:06.482Z,11.10
2023-04-29T08:49:33.926Z,11.00
2023-04-29T08:52:01.491Z,10.90
2023-04-29T08:54:28.755Z,10.80
2023-04-29T08:56:58.317Z,10.70
2023-04-29T08:59:26.144Z,10.70
2023-04-29T09:01:54.760Z,10.60
2023-04-29T09:04:38.104Z,10.60
2023-04-29T09:07:06.623Z,10.60
2023-04-29T09:09:34.571Z,10.60
2023-04-29T09:12:01.762Z,10.70
2023-04-29T09:14:30.975Z,10.70
2023-04-29T09:16:57.687Z,10.70
2023-04-29T09:19:35.983Z,10.80
2023-04-29T09:22:03.961Z,10.80
2023-04-29T09:24:32.177Z,10.90
2023-04-29T09:26:59.927Z,10.90
2023-04-29T09:29:27.088Z,10.90
2023-04-29T09:31:53.858Z,11.00
2023-04-29T09:34:36.244Z,11.00
2023-04-29T09:37:02.895Z,11.00
2023-04-29T09:39:40.086Z,11.10
2023-04-29T09:42:07.105Z,11.10
2023-04-29T09:44:38.592Z,11.10
2023-04-29T09:47:09.721Z,11.10
2023-04-29T09:49:40.987Z,11.10
2023-04-29T09:52:12.320Z,11.00
2023-04-29T09:54:41.307Z,11.00
2023-04-29T09:57:09.593Z,11.10
2023-04-29T09:59:41.647Z,11.30
2023-04-29T10:02:22.719Z,11.40
2023-04-29T10:04:57.347Z,11.50
2023-04-29T10:07:27.428Z,11.50
2023-04-29T10:09:56.055Z,11.40
2023-04-29T10:12:23.939Z,11.50
2023-04-29T10:15:02.803Z,11.50
2023-04-29T10:17:54.443Z,11.60
2023-04-29T10:20:25.896Z,11.60
2023-04-29T10:22:57.740Z,11.60
2023-04-29T10:25:26.644Z,11.60
2023-04-29T10:27:54.925Z,11.60
2023-04-29T10:30:22.556Z,11.70
2023-04-29T10:32:51.993Z,11.80
2023-04-29T10:35:23.048Z,12.00
2023-04-29T10:37:50.090Z,12.00
2023-04-29T10:40:22.330Z,11.90
2023-04-29T10:42:51.117Z,12.00
2023-04-29T10:45:36.950Z,12.00
2023-04-29T10:48:06.569Z,12.10
2023-04-29T10:50:35.989Z,12.10
2023-04-29T10:53:06.075Z,12.20
2023-04-29T10:55:37.830Z,12.20
2023-04-29T10:58:05.656Z,12.10
2023-04-29T11:00:35.047Z,12.10
2023-04-29T11:03:04.996Z,12.20
2023-04-29T11:05:34.424Z,12.50
2023-04-29T11:08:24.142Z,12.60
2023-04-29T11:11:00.745Z,12.70
2023-04-29T11:13:32.541Z,12.80
2023-04-29T11:16:08.162Z,12.80
2023-04-29T11:18:36.787Z,12.80
2023-04-29T11:21:06.554Z,13.00
2023-04-29T11:23:38.838Z,13.10
2023-04-29T11:26:05.625Z,13.00
2023-04-29T11:28:32.818Z,13.10
2023-04-29T11:31:00.403Z,13.30
2023-04-29T11:33:27.956Z,13.50
2023-04-29T11:35:55.731Z,13.60
2023-04-29T11:38:26.676Z,13.80
2023-04-29T11:40:55.751Z,13.90
2023-04-29T11:43:24.350Z,13.90
2023-04-29T11:45:53.468Z,14.00
2023-04-29T11:48:25.167Z,14.20
2023-04-29T11:50:55.317Z,14.30
2023-04-29T11:53:24.680Z,14.50
2023-04-29T11:55:55.967Z,14.90
2023-04-29T11:58:24.496Z,15.00
2023-04-29T12:00:54.511Z,14.90
2023-04-29T12:03:21.697Z,15.00
2023-04-29T12:05:53.688Z,15.10
2023-04-29T12:08:25.274Z,15.00
2023-04-29T12:10:54.364Z,15.00
2023-04-29T12:13:23.629Z,14.90
2023-04-29T12:15:52.661Z,15.00
2023-04-29T12:18:20.961Z,15.00
2023-04-29T12:20:48.507Z,14.90
2023-04-29T12:23:19.780Z,15.10
2023-04-29T12:25:56.230Z,15.40
2023-04-29T12:28:23.753Z,15.70
2023-04-29T12:30:54.180Z,16.00
2023-04-29T12:33:22.457Z,16.10
2023-04-29T12:35:54.015Z,16.20
2023-04-29T12:38:29.223Z,16.30
2023-04-29T12:41:00.789Z,16.40
2023-04-29T12:43:34.617Z,16.30
2023-04-29T12:46:03.437Z,16.60
2023-04-29T12:48:33.501Z,16.80
2023-04-29T12:51:05.470Z,16.70
2023-04-29T12:53:32.616Z,16.50
2023-04-29T12:56:00.117Z,16.30
2023-04-29T12:58:30.563Z,16.00
2023-04-29T13:00:58.904Z,15.60
2023-04-29T13:03:26.764Z,15.20
2023-04-29T13:05:55.289Z,15.00
2023-04-29T13:08:22.957Z,14.70
2023-04-29T13:10:50.466Z,14.50
2023-04-29T13:13:17.145Z,14.40
2023-04-29T13:15:44.493Z,14.30
2023-04-29T13:18:11.578Z,14.30
2023-04-29T13:20:42.512Z,14.30
2023-04-29T13:23:11.906Z,14.30
2023-04-29T13:25:39.231Z,14.40
2023-04-29T13:28:06.944Z,14.40
2023-04-29T13:30:34.789Z,14.50
2023-04-29T13:33:09.865Z,14.40
2023-04-29T13:35:40.602Z,14.30
2023-04-29T13:38:08.691Z,14.40
2023-04-29T13:40:39.258Z,14.40
2023-04-29T13:43:09.563Z,14.60
2023-04-29T13:45:39.836Z,14.80
2023-04-29T13:48:26.035Z,15.00
2023-04-29T13:51:34.593Z,15.00
2023-04-29T13:54:37.427Z,15.00
2023-04-29T13:57:18.487Z,15.10
2023-04-29T14:04:19.422Z,14.90
2023-04-29T14:06:46.288Z,14.80
2023-04-29T14:09:13.518Z,14.70
2023-04-29T14:11:40.443Z,14.60
2023-04-29T14:14:07.669Z,14.50
2023-04-29T14:16:34.428Z,14.50
2023-04-29T14:19:04.017Z,14.50
2023-04-29T14:21:32.926Z,14.60
2023-04-29T14:24:02.659Z,14.80
2023-04-29T14:26:30.039Z,14.90
2023-04-29T14:28:58.077Z,15.00
2023-04-29T14:31:27.871Z,15.10
2023-04-29T14:33:56.258Z,15.20
2023-04-29T14:36:23.106Z,15.40
2023-04-29T14:38:50.579Z,15.50
2023-04-29T14:41:17.228Z,15.60
2023-04-29T14:43:44.694Z,15.60
2023-04-29T14:46:11.583Z,15.60
2023-04-29T14:48:38.949Z,15.40
2023-04-29T14:51:06.166Z,15.40
2023-04-29T14:53:33.541Z,15.50
2023-04-29T14:56:01.128Z,15.50
2023-04-29T14:58:27.865Z,15.50
2023-04-29T15:00:55.190Z,15.60
2023-04-29T15:03:23.299Z,15.60
2023-04-29T15:05:51.340Z,15.70
2023-04-29T15:08:19.600Z,15.70
2023-04-29T15:10:47.296Z,15.70
2023-04-29T15:13:14.290Z,15.70
2023-04-29T15:15:42.112Z,15.70
2023-04-29T15:18:09.252Z,15.80
2023-04-29T15:20:37.766Z,15.80
2023-04-29T15:23:05.656Z,15.80
2023-04-29T15:25:34.825Z,15.70
2023-04-29T15:28:04.457Z,15.70
2023-04-29T15:30:32.352Z,15.60
2023-04-29T15:32:59.120Z,15.60
2023-04-29T15:35:27.109Z,15.60
2023-04-29T15:37:53.832Z,15.60
2023-04-29T15:40:21.145Z,15.70
2023-04-29T15:42:47.738Z,15.70
2023-04-29T15:45:15.035Z,15.80
2023-04-29T15:47:41.689Z,15.80
2023-04-29T15:50:10.750Z,15.80
2023-04-29T15:52:37.361Z,15.70
2023-04-29T15:55:06.315Z,15.70
2023-04-29T15:57:34.508Z,15.80
2023-04-29T16:00:01.862Z,15.70
2023-04-29T16:02:28.655Z,15.60
2023-04-29T16:04:55.707Z,15.50
2023-04-29T16:07:22.334Z,15.50
2023-04-29T16:09:49.738Z,15.50
2023-04-29T16:12:16.462Z,15.50
2023-04-29T16:14:43.953Z,15.60
2023-04-29T16:17:10.586Z,15.70
2023-04-29T16:19:37.906Z,15.70
2023-04-29T16:22:04.636Z,15.80
2023-04-29T16:24:32.189Z,15.80
2023-04-29T16:26:59.137Z,15.70
2023-04-29T16:29:26.830Z,15.60
2023-04-29T16:31:53.628Z,15.50
2023-04-29T16:34:21.038Z,15.50
2023-04-29T16:36:47.948Z,15.40
2023-04-29T16:39:15.244Z,15.40
2023-04-29T16:41:41.943Z,15.40
2023-04-29T16:44:09.320Z,15.40
2023-04-29T16:46:36.208Z,15.40
2023-04-29T16:49:03.671Z,15.30
2023-04-29T16:51:33.320Z,15.30
2023-04-29T16:54:00.665Z,15.30
2023-04-29T16:56:27.452Z,15.20
2023-04-29T16:58:54.844Z,15.20
2023-04-29T17:01:21.708Z,15.10
2023-04-29T17:03:49.873Z,15.00
2023-04-29T17:06:16.740Z,15.00
2023-04-29T17:08:44.463Z,14.90
2023-04-29T17:11:11.339Z,14.90
2023-04-29T17:13:38.567Z,14.90
2023-04-29T17:16:06.185Z,15.00
2023-04-29T17:18:33.191Z,14.90
2023-04-29T17:20:59.869Z,14.90
2023-04-29T17:23:27.706Z,14.90
2023-04-29T17:25:55.261Z,14.80
2023-04-29T17:28:22.433Z,14.80
2023-04-29T17:30:49.605Z,14.80
2023-04-29T17:33:17.843Z,14.70
2023-04-29T17:35:45.261Z,14.70
2023-04-29T17:38:13.016Z,14.70
2023-04-29T17:40:39.668Z,14.60
2023-04-29T17:43:07.026Z,14.60
2023-04-29T17:45:33.898Z,14.50
2023-04-29T17:48:01.320Z,14.50
2023-04-29T17:50:28.050Z,14.50
2023-04-29T17:52:55.107Z,14.50
2023-04-29T17:55:21.867Z,14.40
2023-04-29T17:57:49.178Z,14.40
2023-04-29T18:00:16.322Z,14.40
2023-04-29T18:02:43.682Z,14.30
2023-04-29T18:05:10.499Z,14.20
2023-04-29T18:07:37.412Z,14.20
2023-04-29T18:10:05.708Z,14.20
2023-04-29T18:12:33.504Z,14.10
2023-04-29T18:15:01.805Z,14.10
2023-04-29T18:17:29.123Z,14.00
2023-04-29T18:19:55.984Z,14.00
2023-04-29T18:22:23.448Z,14.00
2023-04-29T18:24:50.040Z,13.90
2023-04-29T18:27:16.959Z,14.00
2023-04-29T18:29:45.117Z,13.90
2023-04-29T18:32:12.102Z,13.90
2023-04-29T18:34:38.870Z,13.90
2023-04-29T18:37:06.154Z,13.90
2023-04-29T18:39:32.895Z,13.80
2023-04-29T18:42:00.089Z,13.70
2023-04-29T18:44:28.083Z,13.60
2023-04-29T18:46:55.491Z,13.60
2023-04-29T18:49:22.294Z,13.60
2023-04-29T18:51:50.029Z,13.60
2023-04-29T18:54:17.970Z,13.50
2023-04-29T18:56:50.197Z,13.50
2023-04-29T18:59:19.290Z,13.50
2023-04-29T19:01:48.181Z,13.40
2023-04-29T19:04:15.335Z,13.40
2023-04-29T19:06:42.859Z,13.30
2023-04-29T19:09:11.070Z,13.20
2023-04-29T19:11:38.426Z,13.20
2023-04-29T19:14:05.761Z,13.20
2023-04-29T19:16:35.561Z,13.10
2023-04-29T19:19:03.892Z,13.10
2023-04-29T19:21:33.306Z,13.00
2023-04-29T19:24:00.178Z,13.00
2023-04-29T19:26:27.530Z,13.00
2023-04-29T19:28:54.173Z,13.00
2023-04-29T19:31:21.801Z,13.00
2023-04-29T19:33:48.653Z,12.90
2023-04-29T19:36:15.657Z,12.90
2023-04-29T19:38:42.309Z,12.80
2023-04-29T19:41:09.714Z,12.70
2023-04-29T19:43:36.381Z,12.70
2023-04-29T19:46:03.786Z,12.60
2023-04-29T19:48:30.795Z,12.50
2023-04-29T19:51:01.170Z,12.40
2023-04-29T19:53:27.894Z,12.30
2023-04-29T19:55:55.015Z,12.20
2023-04-29T19:58:21.663Z,12.10
2023-04-29T20:00:48.751Z,11.90
2023-04-29T20:03:15.925Z,11.80
2023-04-29T20:05:43.130Z,11.70
2023-04-29T20:08:09.812Z,11.60
2023-04-29T20:10:36.926Z,11.50
2023-04-29T20:13:03.551Z,11.40
2023-04-29T20:15:30.668Z,11.30
2023-04-29T20:17:58.006Z,11.20
2023-04-29T20:20:25.946Z,11.20
2023-04-29T20:22:52.729Z,11.20
2023-04-29T20:25:20.745Z,11.10
2023-04-29T20:27:47.328Z,11.10
2023-04-29T20:30:14.313Z,11.00
2023-04-29T20:32:41.338Z,11.00
2023-04-29T20:35:08.712Z,10.90
2023-04-29T20:37:36.018Z,10.90
2023-04-29T20:40:06.222Z,10.90
2023-04-29T20:42:33.083Z,10.80
2023-04-29T20:45:00.033Z,10.80
2023-04-29T20:47:27.933Z,10.70
2023-04-29T20:49:54.708Z,10.80
2023-04-29T20:52:22.152Z,10.80
2023-04-29T20:54:48.808Z,10.90
2023-04-29T20:57:16.390Z,10.90
2023-04-29T20:59:43.023Z,10.90
2023-04-29T21:02:10.240Z,10.80
2023-04-29T21:04:36.907Z,10.80
2023-04-29T21:07:04.821Z,10.90
2023-04-29T21:09:31.509Z,10.80
2023-04-29T21:11:59.662Z,10.80
2023-04-29T21:14:27.191Z,10.70
2023-04-29T21:16:55.033Z,10.60
2023-04-29T21:19:21.661Z,10.60
2023-04-29T21:21:49.665Z,10.60
2023-04-29T21:24:16.381Z,10.60
2023-04-29T21:26:44.163Z,10.60
2023-04-29T21:29:11.127Z,10.70
2023-04-29T21:31:38.420Z,10.70
2023-04-29T21:34:05.959Z,10.70
2023-04-29T21:36:33.313Z,10.60
2023-04-29T21:38:59.923Z,10.70
2023-04-29T21:41:29.522Z,10.70
2023-04-29T21:43:58.633Z,10.70
2023-04-29T21:46:28.140Z,10.60
2023-04-29T21:48:57.964Z,10.60
2023-04-29T21:51:25.744Z,10.60
2023-04-29T21:53:52.567Z,10.60
2023-04-29T21:56:19.927Z,10.50
2023-04-29T21:58:46.583Z,10.40
2023-04-29T22:01:32.331Z,10.40
2023-04-29T22:03:58.988Z,10.30
2023-04-29T22:06:26.956Z,10.20
2023-04-29T22:08:53.969Z,10.10
2023-04-29T22:11:22.169Z,10.10
2023-04-29T22:13:49.107Z,10.00
2023-04-29T22:16:16.829Z,10.00
2023-04-29T22:18:43.475Z,9.90
2023-04-29T22:21:10.872Z,9.90
2023-04-29T22:23:37.602Z,9.80
2023-04-29T22:26:05.157Z,9.80
2023-04-29T22:28:31.943Z,9.70
2023-04-29T22:30:59.254Z,9.70
2023-04-29T22:33:26.152Z,9.60
2023-04-29T22:35:53.402Z,9.60
2023-04-29T22:38:19.986Z,9.50
2023-04-29T22:40:53.855Z,9.50
2023-04-29T22:43:20.671Z,9.50
2023-04-29T22:45:53.451Z,9.40
2023-04-29T22:48:20.538Z,9.50
2023-04-29T22:50:55.757Z,9.50
2023-04-29T22:53:22.852Z,9.40
2023-04-29T22:55:52.080Z,9.40
2023-04-29T22:58:19.616Z,9.30
2023-04-29T23:00:51.194Z,9.30
2023-04-29T23:03:18.595Z,9.20
2023-04-29T23:05:46.456Z,9.20
2023-04-29T23:08:13.094Z,9.10
2023-04-29T23:10:40.516Z,9.10
2023-04-29T23:13:07.231Z,9.00
2023-04-29T23:15:34.482Z,9.00
2023-04-29T23:18:01.111Z,9.00
2023-04-29T23:20:28.370Z,9.00
2023-04-29T23:22:55.025Z,8.90
2023-04-29T23:25:22.349Z,8.90
2023-04-29T23:27:49.005Z,8.90
2023-04-29T23:30:16.238Z,8.90
2023-04-29T23:32:42.856Z,8.80
2023-04-29T23:35:13.678Z,8.80
2023-04-29T23:37:40.431Z,8.70
2023-04-29T23:40:07.977Z,8.60
2023-04-29T23:42:34.750Z,8.60
2023-04-29T23:45:02.005Z,8.50
2023-04-29T23:47:28.642Z,8.50
2023-04-29T23:49:56.179Z,8.40
2023-04-29T23:52:23.127Z,8.40
2023-04-29T23:54:50.476Z,8.40
2023-04-29T23:57:17.745Z,8.30
2023-04-29T23:59:45.786Z,8.30
